Time;durP1;ratioP1;P1;durP2;ratioP2;P2;SDS_P1;SDS_P2;PMS_P1;PMS_P2;Temp;Humidity;BMP_temperature;BMP_pressure;BME280_temperature;BME280_humidity;BME280_pressure;Samples;Min_cycle;Max_cycle;Signal;HPM_P1;HPM_P2
2020/12/12 00:01:48;;;;;;;29.50;14.87;;;;;;;3.51;89.10;99388.13;1776906;80;26335;-55
2020/12/12 00:04:14;;;;;;;28.38;13.03;;;;;;;3.52;89.13;99393.72;1776955;80;25839;-57
2020/12/12 00:06:42;;;;;;;27.25;14.00;;;;;;;3.54;89.24;99391.55;1776893;80;26320;-56
2020/12/12 00:09:09;;;;;;;29.15;12.65;;;;;;;3.54;89.07;99392.38;1776838;80;27345;-57
2020/12/12 00:11:36;;;;;;;22.62;12.65;;;;;;;3.55;89.09;99393.16;1779724;80;26300;-57
2020/12/12 00:14:03;;;;;;;25.57;13.40;;;;;;;3.54;89.07;99386.20;1781407;80;25780;-62
2020/12/12 00:16:30;;;;;;;21.02;11.40;;;;;;;3.53;89.05;99380.07;1781249;80;25753;-60
2020/12/12 00:18:56;;;;;;;23.02;11.53;;;;;;;3.54;89.03;99383.53;1781141;80;26255;-49
2020/12/12 00:21:23;;;;;;;23.75;12.30;;;;;;;3.54;89.05;99383.53;1781212;80;26316;-62
2020/12/12 00:23:53;;;;;;;24.02;12.37;;;;;;;3.54;89.00;99391.55;1781157;80;25676;-59
2020/12/12 00:26:25;;;;;;;19.82;10.53;;;;;;;3.54;88.95;99387.02;1781256;80;30317;-65
2020/12/12 00:28:51;;;;;;;18.60;11.48;;;;;;;3.53;89.09;99383.29;1781095;80;25734;-56
2020/12/12 00:31:19;;;;;;;24.75;11.80;;;;;;;3.51;89.21;99386.80;1781059;80;25702;-63
2020/12/12 00:33:47;;;;;;;21.25;11.33;;;;;;;3.50;89.10;99390.54;1781162;80;26149;-61
2020/12/12 00:36:14;;;;;;;23.85;12.35;;;;;;;3.49;89.14;99376.38;1781068;80;25831;-49
2020/12/12 00:38:41;;;;;;;20.92;10.58;;;;;;;3.49;89.08;99379.58;1781105;80;25774;-56
2020/12/12 00:41:08;;;;;;;22.67;12.05;;;;;;;3.47;89.07;99376.39;1781136;80;25718;-56
2020/12/12 00:43:35;;;;;;;25.40;11.60;;;;;;;3.47;89.16;99376.39;1781352;80;25744;-63
2020/12/12 00:46:02;;;;;;;22.90;11.18;;;;;;;3.46;89.10;99380.95;1781154;80;25713;-55
2020/12/12 00:48:29;;;;;;;22.48;12.58;;;;;;;3.47;89.02;99387.09;1781087;80;25645;-51
2020/12/12 00:50:56;;;;;;;20.62;11.97;;;;;;;3.46;89.03;99380.17;1781192;80;25975;-62
2020/12/12 00:53:22;;;;;;;22.02;12.58;;;;;;;3.45;89.06;99376.67;1781127;80;25725;-62
2020/12/12 00:55:55;;;;;;;25.12;12.47;;;;;;;3.45;89.16;99381.23;1781243;80;25610;-59
2020/12/12 00:58:22;;;;;;;24.25;11.75;;;;;;;3.44;88.97;99378.30;1781406;80;25765;-57
2020/12/12 01:00:49;;;;;;;23.87;12.45;;;;;;;3.44;88.96;99387.65;1781226;80;25769;-58
2020/12/12 01:03:15;;;;;;;22.37;12.30;;;;;;;3.43;88.94;99384.73;1781199;80;25638;-54
2020/12/12 01:05:42;;;;;;;22.45;12.53;;;;;;;3.42;88.95;99376.45;1781297;80;25730;-52
2020/12/12 01:08:09;;;;;;;22.32;12.10;;;;;;;3.41;88.88;99377.55;1781418;80;25737;-57
2020/12/12 01:10:36;;;;;;;25.00;12.95;;;;;;;3.40;88.83;99372.72;1780740;80;27064;-57
2020/12/12 01:13:02;;;;;;;24.75;12.63;;;;;;;3.39;88.85;99377.83;1776912;80;25793;-58
2020/12/12 01:15:29;;;;;;;25.65;13.50;;;;;;;3.37;88.84;99377.29;1776967;80;25647;-58
2020/12/12 01:17:56;;;;;;;27.55;13.05;;;;;;;3.38;88.92;99383.45;1777094;80;26325;-59
2020/12/12 01:20:23;;;;;;;22.45;11.48;;;;;;;3.38;88.83;99386.13;1776925;80;25756;-50
2020/12/12 01:22:50;;;;;;;20.80;11.85;;;;;;;3.35;88.81;99386.14;1776984;80;26386;-53
2020/12/12 01:25:17;;;;;;;24.52;12.93;;;;;;;3.34;88.83;99385.90;1776818;80;25708;-62
2020/12/12 01:27:44;;;;;;;22.50;12.95;;;;;;;3.32;88.79;99386.17;1776857;80;25786;-62
2020/12/12 01:30:10;;;;;;;26.05;12.47;;;;;;;3.31;88.80;99384.58;1776813;80;25638;-61
2020/12/12 01:32:38;;;;;;;30.90;13.90;;;;;;;3.29;88.81;99381.39;1776866;80;25681;-66
2020/12/12 01:35:05;;;;;;;25.72;12.58;;;;;;;3.29;88.85;99380.05;1776948;80;25918;-54
2020/12/12 01:37:32;;;;;;;29.12;13.70;;;;;;;3.27;88.99;99382.22;1776835;80;25727;-61
2020/12/12 01:39:59;;;;;;;27.30;13.83;;;;;;;3.24;88.84;99374.77;1776854;80;25698;-60
2020/12/12 01:42:26;;;;;;;23.80;13.93;;;;;;;3.22;88.91;99372.92;1776862;80;25634;-52
2020/12/12 01:44:57;;;;;;;25.45;13.10;;;;;;;3.22;89.16;99379.59;1776929;80;26065;-58
2020/12/12 01:47:26;;;;;;;26.17;13.15;;;;;;;3.20;88.90;99367.58;1777034;80;25714;-46
2020/12/12 01:49:53;;;;;;;25.68;14.28;;;;;;;3.17;88.95;99375.64;1776883;80;25681;-59
2020/12/12 01:52:21;;;;;;;26.07;13.88;;;;;;;3.15;88.96;99368.42;1777003;80;25688;-56
2020/12/12 01:54:48;;;;;;;25.52;13.93;;;;;;;3.14;88.89;99368.18;1776966;80;25603;-61
2020/12/12 01:57:21;;;;;;;25.80;14.13;;;;;;;3.11;89.10;99373.53;1776890;80;25676;-60
2020/12/12 01:59:50;;;;;;;27.67;14.53;;;;;;;3.10;89.02;99377.82;1776927;80;25703;-59
2020/12/12 02:02:19;;;;;;;23.50;12.93;;;;;;;3.07;88.99;99374.40;1776908;80;25630;-62
2020/12/12 02:04:52;;;;;;;;;;;;;;;3.06;89.15;99370.91;1779820;80;25597;-57
2020/12/12 02:07:21;;;;;;;26.12;14.28;;;;;;;3.04;89.31;99372.28;1786990;80;25658;-55
2020/12/12 02:09:49;;;;;;;26.57;14.70;;;;;;;3.01;89.13;99368.28;1788607;80;26199;-57
2020/12/12 02:12:17;;;;;;;26.90;13.72;;;;;;;2.98;89.17;99364.31;1794558;79;25761;-51
2020/12/12 02:14:44;;;;;;;25.62;13.50;;;;;;;2.98;89.24;99370.20;1797953;79;25625;-58
2020/12/12 02:17:11;;;;;;;27.98;14.47;;;;;;;2.97;89.43;99372.06;1798031;79;25657;-54
2020/12/12 02:19:38;;;;;;;27.90;14.33;;;;;;;2.98;89.26;99376.88;1797875;79;25690;-49
2020/12/12 02:22:07;;;;;;;28.60;14.33;;;;;;;2.95;89.23;99367.54;1798148;79;25660;-55
2020/12/12 02:24:35;;;;;;;27.85;15.28;;;;;;;2.95;89.18;99366.20;1798111;79;25911;-47
2020/12/12 02:27:05;;;;;;;27.85;14.28;;;;;;;2.94;89.22;99367.27;1797971;79;25709;-51
2020/12/12 02:32:15;;;;;;;26.70;14.63;;;;;;;2.99;89.19;99370.44;1847065;76;35154;-59
2020/12/12 02:34:45;;;;;;;28.15;13.15;;;;;;;2.92;89.22;99357.95;1817194;78;25659;-57
2020/12/12 02:37:12;;;;;;;27.80;14.45;;;;;;;2.91;89.21;99363.03;1817454;78;25686;-53
2020/12/12 02:39:39;;;;;;;26.10;14.40;;;;;;;2.89;89.22;99367.86;1817200;78;25658;-50
2020/12/12 02:42:05;;;;;;;27.20;13.98;;;;;;;2.89;89.20;99365.98;1817183;78;25589;-51
2020/12/12 02:44:32;;;;;;;24.25;14.00;;;;;;;2.89;89.15;99361.19;1817172;78;25636;-50
2020/12/12 02:46:59;;;;;;;30.65;13.45;;;;;;;2.87;89.22;99361.46;1817167;78;25625;-54
2020/12/12 02:49:25;;;;;;;27.52;14.13;;;;;;;2.86;89.16;99358.55;1817251;78;27153;-57
2020/12/12 02:51:52;;;;;;;25.92;14.65;;;;;;;2.87;89.18;99362.01;1817036;78;25621;-52
2020/12/12 02:54:18;;;;;;;26.65;14.30;;;;;;;2.87;89.21;99370.02;1817163;78;25574;-58
2020/12/12 02:56:45;;;;;;;27.25;15.03;;;;;;;2.87;89.24;99365.47;1817131;78;25556;-50
2020/12/12 02:59:12;;;;;;;28.38;14.33;;;;;;;2.90;89.14;99369.47;1817191;78;25936;-49
2020/12/12 03:01:40;;;;;;;26.65;14.07;;;;;;;2.91;89.10;99376.39;1817370;78;26841;-54
2020/12/12 03:04:08;;;;;;;26.85;14.58;;;;;;;2.88;89.31;99372.42;1817152;78;25630;-50
2020/12/12 03:06:36;;;;;;;25.72;13.80;;;;;;;2.87;89.11;99374.03;1817178;78;25644;-59
2020/12/12 03:09:05;;;;;;;31.40;16.05;;;;;;;2.85;88.99;99378.86;1817110;78;26266;-51
2020/12/12 03:11:31;;;;;;;29.95;15.15;;;;;;;2.85;89.00;99371.64;1817152;78;25645;-52
2020/12/12 03:13:59;;;;;;;23.95;13.05;;;;;;;2.84;89.04;99368.69;1817160;78;25908;-56
2020/12/12 03:16:25;;;;;;;25.17;14.47;;;;;;;2.83;89.03;99371.13;1817004;78;25628;-57
2020/12/12 03:18:52;;;;;;;25.27;13.88;;;;;;;2.83;89.01;99374.31;1817175;78;25572;-59
2020/12/12 03:21:18;;;;;;;28.42;14.43;;;;;;;2.82;89.01;99376.74;1817111;78;25698;-57
2020/12/12 03:23:45;;;;;;;25.52;13.90;;;;;;;2.80;89.09;99374.34;1817201;78;25591;-52
2020/12/12 03:26:11;;;;;;;23.65;13.15;;;;;;;2.79;88.96;99388.25;1817163;78;26149;-55
2020/12/12 03:28:38;;;;;;;25.70;14.00;;;;;;;2.79;88.96;99377.56;1817111;78;25709;-58
2020/12/12 03:31:05;;;;;;;24.87;14.20;;;;;;;2.78;88.92;99376.50;1816933;78;25594;-56
2020/12/12 03:33:31;;;;;;;26.50;13.60;;;;;;;2.78;88.92;99373.84;1817177;78;25238;-60
2020/12/12 03:35:58;;;;;;;26.48;14.05;;;;;;;2.76;88.93;99373.33;1817245;78;26243;-58
2020/12/12 03:38:25;;;;;;;26.87;14.85;;;;;;;2.74;88.96;99382.95;1817048;78;26199;-58
2020/12/12 03:40:51;;;;;;;30.95;16.35;;;;;;;2.74;88.97;99386.13;1817120;78;26299;-49
2020/12/12 03:43:19;;;;;;;28.32;15.15;;;;;;;2.72;88.94;99380.28;1816586;78;25680;-51
2020/12/12 03:45:47;;;;;;;28.12;14.80;;;;;;;2.71;89.03;99380.05;1816466;78;25614;-53
2020/12/12 03:48:14;;;;;;;32.45;16.07;;;;;;;2.68;89.10;99389.39;1816627;78;25600;-59
2020/12/12 03:50:40;;;;;;;30.27;14.33;;;;;;;2.66;89.00;99385.42;1816546;78;27187;-48
2020/12/12 03:53:07;;;;;;;31.07;14.98;;;;;;;2.65;88.96;99387.82;1816483;78;25644;-50
2020/12/12 03:55:36;;;;;;;27.02;14.23;;;;;;;2.64;89.07;99392.38;1816657;78;26421;-58
2020/12/12 03:58:03;;;;;;;30.37;13.78;;;;;;;2.63;88.97;99384.09;1816461;78;25584;-52
2020/12/12 04:00:29;;;;;;;23.65;12.78;;;;;;;2.60;88.78;99392.65;1816480;78;25593;-54
2020/12/12 04:02:56;;;;;;;27.27;13.32;;;;;;;2.56;88.86;99389.73;1816580;78;25987;-53
2020/12/12 04:05:23;;;;;;;28.50;14.43;;;;;;;2.51;88.69;99379.09;1816388;78;26286;-59
2020/12/12 04:07:50;;;;;;;24.15;12.33;;;;;;;2.50;88.67;99389.50;1816553;78;25665;-56
2020/12/12 04:10:16;;;;;;;23.75;13.83;;;;;;;2.47;88.78;99386.59;1816495;78;25609;-59
2020/12/12 04:12:43;;;;;;;27.77;13.43;;;;;;;2.43;88.71;99384.50;1816502;78;25613;-56
2020/12/12 04:15:09;;;;;;;29.77;12.98;;;;;;;2.41;88.69;99384.50;1816585;78;27029;-50
2020/12/12 04:17:36;;;;;;;26.00;13.85;;;;;;;2.39;88.70;99387.98;1816436;78;25638;-59
2020/12/12 04:20:03;;;;;;;30.10;15.10;;;;;;;2.35;88.65;99384.26;1816509;78;25686;-49
2020/12/12 04:22:30;;;;;;;27.95;13.32;;;;;;;2.31;88.68;99388.56;1816602;78;25683;-47
2020/12/12 04:24:58;;;;;;;32.23;15.72;;;;;;;2.26;88.74;99397.94;1816483;78;25731;-47
2020/12/12 04:27:24;;;;;;;33.75;15.68;;;;;;;2.22;88.90;99402.48;1816503;78;26217;-51
2020/12/12 04:29:51;;;;;;;31.07;15.08;;;;;;;2.19;88.84;99399.03;1816549;78;25646;-60
2020/12/12 04:32:18;;;;;;;30.80;15.30;;;;;;;2.16;88.68;99404.94;1821139;77;25702;-51
2020/12/12 04:34:44;;;;;;;32.13;14.87;;;;;;;2.15;88.69;99407.88;1822766;78;26271;-51
2020/12/12 04:37:11;;;;;;;35.10;16.55;;;;;;;2.12;88.64;99404.42;1822878;78;25656;-58
2020/12/12 04:39:38;;;;;;;33.73;15.60;;;;;;;2.09;88.66;99401.74;1822843;78;27152;-50
2020/12/12 04:42:06;;;;;;;32.85;15.63;;;;;;;2.09;88.68;99406.30;1822786;78;25689;-58
2020/12/12 04:44:34;;;;;;;34.40;15.13;;;;;;;2.07;88.67;99399.89;1823037;78;25601;-57
2020/12/12 04:47:01;;;;;;;39.23;15.95;;;;;;;2.06;88.70;99402.31;1822796;78;25712;-51
2020/12/12 04:49:28;;;;;;;38.00;16.50;;;;;;;2.04;88.72;99405.77;1822800;78;25605;-52
2020/12/12 04:51:55;;;;;;;29.95;14.93;;;;;;;2.03;88.64;99413.53;1822735;78;26163;-59
2020/12/12 04:54:22;;;;;;;34.88;14.93;;;;;;;2.01;88.80;99403.64;1822660;78;25616;-57
2020/12/12 04:56:49;;;;;;;34.45;15.70;;;;;;;1.99;88.75;99409.28;1822808;78;25744;-53
2020/12/12 04:59:18;;;;;;;32.90;15.35;;;;;;;1.97;88.69;99418.06;1822763;78;25699;-48
2020/12/12 05:01:47;;;;;;;30.40;13.40;;;;;;;1.98;88.77;99413.55;1823237;78;26159;-58
2020/12/12 05:04:14;;;;;;;37.45;16.40;;;;;;;1.96;88.92;99411.67;1823007;78;26196;-58
2020/12/12 05:06:40;;;;;;;37.10;17.73;;;;;;;1.93;88.84;99422.36;1822888;78;25637;-54
2020/12/12 05:09:09;;;;;;;36.17;16.42;;;;;;;1.91;88.66;99421.84;1822976;78;25697;-59
2020/12/12 05:11:37;;;;;;;34.98;16.25;;;;;;;1.92;88.72;99422.63;1822786;78;25567;-54
2020/12/12 05:14:09;;;;;;;36.63;16.93;;;;;;;1.90;88.80;99424.23;1795537;78;26204;-59
2020/12/12 05:16:37;;;;;;;36.08;16.30;;;;;;;1.89;88.72;99428.50;1822935;78;25939;-54
2020/12/12 05:19:05;;;;;;;36.80;15.88;;;;;;;1.83;88.70;99427.19;1822751;78;25630;-51
2020/12/12 05:21:31;;;;;;;34.45;15.58;;;;;;;1.81;88.61;99424.00;1822931;78;25554;-58
2020/12/12 05:24:02;;;;;;;35.13;16.10;;;;;;;1.82;88.71;99423.45;1822823;78;25702;-58
2020/12/12 05:26:30;;;;;;;35.35;16.02;;;;;;;1.80;88.61;99429.60;1823085;78;25672;-51
2020/12/12 05:29:01;;;;;;;32.78;15.25;;;;;;;1.80;88.61;99437.60;1822882;78;25748;-57
2020/12/12 05:31:28;;;;;;;37.03;17.17;;;;;;;1.74;88.55;99423.50;1821057;78;25658;-53
2020/12/12 05:33:55;;;;;;;36.70;15.78;;;;;;;1.73;88.43;99429.09;1816590;78;25711;-52
2020/12/12 05:36:29;;;;;;;34.10;16.07;;;;;;;1.71;88.48;99435.24;1816589;78;25771;-56
2020/12/12 05:38:59;;;;;;;35.52;16.70;;;;;;;1.70;88.52;99434.42;1816690;78;25559;-58
2020/12/12 05:41:28;;;;;;;36.13;17.45;;;;;;;1.68;88.53;99441.36;1816625;78;25677;-57
2020/12/12 05:43:55;;;;;;;35.60;16.93;;;;;;;1.69;88.57;99446.17;1816468;78;25663;-57
2020/12/12 05:46:26;;;;;;;33.00;16.95;;;;;;;1.68;88.50;99441.90;1816392;78;25613;-57
2020/12/12 05:48:53;;;;;;;39.27;17.07;;;;;;;1.65;88.48;99442.44;1816467;78;25581;-57
2020/12/12 05:51:21;;;;;;;38.60;16.90;;;;;;;1.61;88.44;99448.84;1816336;78;25602;-55
2020/12/12 05:53:48;;;;;;;32.53;15.53;;;;;;;1.59;88.33;99445.66;1816489;78;26676;-58
2020/12/12 05:56:16;;;;;;;35.68;15.90;;;;;;;1.56;88.28;99447.52;1816309;78;25566;-54
2020/12/12 05:58:47;;;;;;;31.70;14.68;;;;;;;1.55;88.28;99440.61;1816421;78;25716;-54
2020/12/12 06:01:22;;;;;;;29.30;15.48;;;;;;;1.54;88.22;99442.20;1816361;78;25637;-56
2020/12/12 06:04:06;;;;;;;31.82;14.78;;;;;;;1.52;88.14;99443.81;1816473;78;25721;-50
2020/12/12 06:06:33;;;;;;;25.48;14.00;;;;;;;1.49;88.14;99447.80;1816331;78;25830;-57
2020/12/12 06:09:07;;;;;;;29.20;13.60;;;;;;;1.47;88.09;99441.94;1816297;78;26235;-56
2020/12/12 06:11:40;;;;;;;31.75;14.68;;;;;;;1.47;88.08;99443.27;1816375;78;25559;-57
2020/12/12 06:14:08;;;;;;;29.60;13.15;;;;;;;1.46;88.00;99448.36;1816364;78;26281;-56
2020/12/12 06:16:36;;;;;;;23.20;12.07;;;;;;;1.45;88.01;99440.62;1816500;78;25761;-57
2020/12/12 06:19:12;;;;;;;23.35;12.00;;;;;;;1.45;88.03;99441.96;1816404;78;25914;-56
2020/12/12 06:21:42;;;;;;;24.50;12.53;;;;;;;1.44;87.91;99439.81;1816319;78;25671;-56
2020/12/12 06:24:16;;;;;;;22.25;11.38;;;;;;;1.43;87.86;99442.23;1816565;78;25654;-56
2020/12/12 06:26:59;;;;;;;19.87;10.98;;;;;;;1.41;87.78;99443.01;1816391;78;25722;-57
2020/12/12 06:29:30;;;;;;;19.65;10.90;;;;;;;1.41;87.73;99440.88;1816487;78;25618;-56
2020/12/12 06:31:58;;;;;;;23.07;11.12;;;;;;;1.39;87.67;99438.48;1816385;77;25765;-56
2020/12/12 06:34:47;;;;;;;20.48;9.98;;;;;;;1.39;87.73;99443.81;1784686;78;25646;-56
2020/12/12 06:37:31;;;;;;;19.40;9.65;;;;;;;1.39;87.63;99451.02;1816484;78;25639;-55
2020/12/12 06:40:02;;;;;;;16.10;8.93;;;;;;;1.38;87.51;99456.89;1816424;78;25760;-57
2020/12/12 06:42:39;;;;;;;15.90;8.35;;;;;;;1.37;87.50;99453.16;1816408;78;25689;-57
2020/12/12 06:45:23;;;;;;;16.40;9.00;;;;;;;1.36;87.48;99447.55;1816420;78;25802;-55
2020/12/12 06:47:53;;;;;;;14.05;8.53;;;;;;;1.34;87.41;99445.16;1816273;78;25676;-55
2020/12/12 06:50:26;;;;;;;;;;;;;;;1.33;87.20;99441.42;1819060;78;25671;-56
2020/12/12 06:52:53;;;;;;;16.40;9.13;;;;;;;1.30;87.19;99445.44;1815690;78;25792;-56
2020/12/12 06:55:22;;;;;;;17.25;9.05;;;;;;;1.29;87.26;99435.83;1816485;78;25696;-55
2020/12/12 06:57:55;;;;;;;14.77;9.13;;;;;;;1.26;87.16;99438.52;1816626;78;26734;-54
2020/12/12 07:00:34;;;;;;;14.18;8.40;;;;;;;1.24;87.07;99441.98;1815208;78;25675;-52
2020/12/12 07:03:07;;;;;;;15.08;8.48;;;;;;;1.25;87.10;99449.44;1816386;78;26295;-52
2020/12/12 07:05:37;;;;;;;17.07;9.60;;;;;;;1.24;87.04;99450.48;1816434;78;25605;-57
2020/12/12 07:08:09;;;;;;;16.60;9.23;;;;;;;1.21;87.02;99457.17;1816491;78;26210;-57
2020/12/12 07:10:40;;;;;;;16.42;8.85;;;;;;;1.19;87.02;99453.98;1816352;78;26259;-51
2020/12/12 07:13:08;;;;;;;15.10;8.63;;;;;;;1.19;87.03;99453.98;1816342;78;25709;-52
2020/12/12 07:15:37;;;;;;;19.05;9.05;;;;;;;1.20;87.11;99453.44;1816381;78;25916;-58
2020/12/12 07:18:13;;;;;;;16.50;8.93;;;;;;;1.19;86.94;99456.64;1816397;78;25570;-56
2020/12/12 07:20:46;;;;;;;17.87;9.83;;;;;;;1.19;86.93;99452.64;1816657;78;25656;-55
2020/12/12 07:23:13;;;;;;;16.17;8.35;;;;;;;1.19;86.94;99459.30;1816499;78;26824;-56
2020/12/12 07:25:40;;;;;;;18.07;10.00;;;;;;;1.17;86.85;99458.75;1816192;78;25578;-56
2020/12/12 07:28:07;;;;;;;16.17;9.88;;;;;;;1.18;86.96;99455.03;1816508;78;25700;-55
2020/12/12 07:30:33;;;;;;;19.50;9.43;;;;;;;1.17;86.87;99460.08;1816469;78;25658;-49
2020/12/12 07:33:01;;;;;;;19.32;9.63;;;;;;;1.19;86.89;99463.81;1821671;78;26321;-55
2020/12/12 07:35:29;;;;;;;17.82;9.83;;;;;;;1.18;86.79;99471.02;1825804;78;27243;-56
2020/12/12 07:38:04;;;;;;;15.93;8.98;;;;;;;1.20;86.91;99473.42;1825716;78;25601;-54
2020/12/12 07:40:36;;;;;;;18.30;9.38;;;;;;;1.21;86.96;99471.82;1825469;78;25612;-50
2020/12/12 07:43:08;;;;;;;13.65;9.03;;;;;;;1.22;86.86;99464.08;1825777;78;25709;-58
2020/12/12 07:48:09;;;;;;;17.80;9.88;;;;;;;1.20;86.68;99480.08;1825725;78;25841;-55
2020/12/12 07:50:38;;;;;;;21.17;11.05;;;;;;;1.19;86.57;99479.28;1825611;78;25582;-57
2020/12/12 07:53:13;;;;;;;17.98;9.73;;;;;;;1.18;86.65;99476.88;1825640;78;25602;-57
2020/12/12 07:55:46;;;;;;;17.90;9.53;;;;;;;1.19;86.69;99475.80;1805244;78;26376;-55
2020/12/12 07:58:20;;;;;;;16.30;9.43;;;;;;;1.21;86.75;99472.33;1796805;78;25739;-56
2020/12/12 08:01:02;;;;;;;18.85;10.20;;;;;;;1.21;86.64;99482.48;1812544;78;26953;-57
2020/12/12 08:03:34;;;;;;;15.20;9.00;;;;;;;1.21;86.53;99483.81;1812877;78;25734;-56
2020/12/12 08:06:09;;;;;;;15.32;9.35;;;;;;;1.21;86.36;99478.99;1783482;78;25694;-56
2020/12/12 08:08:37;;;;;;;16.62;10.72;;;;;;;1.17;86.37;99478.73;1811001;78;25708;-57
2020/12/12 08:11:06;;;;;;;16.67;10.05;;;;;;;1.17;86.36;99481.94;1741020;81;25683;-55
2020/12/12 08:13:33;;;;;;;19.67;10.55;;;;;;;1.16;86.41;99480.33;1738293;81;25969;-56
2020/12/12 08:18:38;;;;;;;19.23;10.78;;;;;;;1.17;86.51;99478.73;1752290;81;25684;-57
2020/12/12 08:21:17;;;;;;;21.20;9.78;;;;;;;1.17;86.51;99481.39;1756346;81;25650;-57
2020/12/12 08:23:45;;;;;;;14.98;8.30;;;;;;;1.18;86.38;99475.55;1759162;81;25758;-57
2020/12/12 08:26:21;;;;;;;17.52;9.95;;;;;;;1.18;86.21;99481.67;1753910;81;26866;-51
2020/12/12 08:28:49;;;;;;;17.25;9.90;;;;;;;1.21;86.42;99485.14;1741753;81;25740;-57
2020/12/12 08:31:21;;;;;;;17.07;9.75;;;;;;;1.23;86.40;99488.33;1760395;81;25654;-55
2020/12/12 08:33:55;;;;;;;19.42;9.90;;;;;;;1.27;86.31;99493.92;1752835;81;26365;-57
2020/12/12 08:36:28;;;;;;;15.72;9.80;;;;;;;1.29;86.42;99493.94;1747619;81;26517;-57
2020/12/12 08:39:05;;;;;;;19.32;10.90;;;;;;;1.32;86.29;99491.26;1736084;81;25772;-55
2020/12/12 08:41:36;;;;;;;17.85;10.68;;;;;;;1.33;86.24;99486.20;1762035;81;25671;-57
2020/12/12 08:44:03;;;;;;;16.60;9.40;;;;;;;1.33;86.12;99495.53;1761501;81;26374;-55
2020/12/12 08:46:31;;;;;;;17.35;10.72;;;;;;;1.33;86.01;99489.38;1761695;81;25787;-55
2020/12/12 08:48:58;;;;;;;16.85;9.98;;;;;;;1.35;86.12;99493.39;1761607;81;25873;-56
2020/12/12 08:51:29;;;;;;;18.52;10.65;;;;;;;1.36;86.09;99488.86;1761420;81;25992;-56
2020/12/12 08:53:57;;;;;;;16.52;10.10;;;;;;;1.35;85.78;99489.94;1761343;81;26335;-56
2020/12/12 08:56:29;;;;;;;21.25;10.68;;;;;;;1.36;85.88;99500.84;1761626;81;25659;-53
2020/12/12 08:59:02;;;;;;;17.40;10.40;;;;;;;1.35;85.77;99492.06;1761536;81;25698;-56
2020/12/12 09:01:44;;;;;;;19.45;10.75;;;;;;;1.35;85.80;99490.73;1761619;81;25710;-56
2020/12/12 09:04:15;;;;;;;18.07;9.80;;;;;;;1.35;85.73;99489.94;1761715;81;26036;-56
2020/12/12 09:06:57;;;;;;;19.23;9.53;;;;;;;1.36;85.90;99483.52;1761419;81;25729;-58
2020/12/12 09:09:28;;;;;;;17.82;10.13;;;;;;;1.36;85.77;99474.98;1761749;81;26439;-55
2020/12/12 09:12:00;;;;;;;15.28;9.25;;;;;;;1.37;85.77;99485.14;1761624;81;25717;-55
2020/12/12 09:14:30;;;;;;;18.52;10.45;;;;;;;1.37;85.71;99479.27;1761663;81;25661;-56
2020/12/12 09:17:00;;;;;;;20.20;10.80;;;;;;;1.37;85.65;99474.48;1761109;81;25786;-56
2020/12/12 09:19:29;;;;;;;18.45;10.28;;;;;;;1.40;85.87;99481.95;1761280;81;25719;-54
2020/12/12 09:21:57;;;;;;;17.98;11.05;;;;;;;1.40;85.43;99480.06;1745701;81;25599;-57
2020/12/12 09:24:25;;;;;;;17.52;11.00;;;;;;;1.39;85.69;99473.13;1749194;81;25714;-56
2020/12/12 09:26:55;;;;;;;18.60;9.50;;;;;;;1.46;85.89;99476.34;1761516;81;25647;-57
2020/12/12 09:29:23;;;;;;;17.23;10.80;;;;;;;1.49;85.94;99457.12;1760925;81;25708;-58
2020/12/12 09:31:51;;;;;;;16.12;9.83;;;;;;;1.51;85.45;99467.52;1744879;81;25680;-58
2020/12/12 09:34:20;;;;;;;17.57;9.98;;;;;;;1.51;85.31;99469.39;1747858;81;25319;-54
2020/12/12 09:36:48;;;;;;;15.63;10.00;;;;;;;1.51;85.32;99464.86;1742600;79;152270;-58
2020/12/12 09:39:16;;;;;;;20.27;11.30;;;;;;;1.52;85.40;99467.01;1750429;80;25659;-56
2020/12/12 09:41:42;;;;;;;17.70;10.43;;;;;;;1.53;85.40;99470.70;1749102;81;25794;-56
2020/12/12 09:44:09;;;;;;;18.00;10.00;;;;;;;1.55;85.39;99469.11;1748747;81;26305;-59
2020/12/12 09:46:37;;;;;;;17.25;10.08;;;;;;;1.54;85.21;99465.66;1738992;80;25996;-58
2020/12/12 09:49:04;;;;;;;15.15;9.50;;;;;;;1.53;85.07;99473.92;1732266;81;25744;-60
2020/12/12 09:51:31;;;;;;;15.28;10.18;;;;;;;1.53;84.97;99466.71;1736035;81;25686;-56
2020/12/12 09:53:58;;;;;;;17.65;10.18;;;;;;;1.53;85.23;99459.26;1738883;80;25935;-55
2020/12/12 09:56:25;;;;;;;18.48;9.60;;;;;;;1.55;85.25;99458.45;1736671;81;25733;-55
2020/12/12 09:58:52;;;;;;;18.32;11.10;;;;;;;1.56;85.11;99462.18;1740084;81;26635;-51
2020/12/12 10:01:18;;;;;;;20.17;10.82;;;;;;;1.58;85.22;99463.25;1741918;81;26068;-55
2020/12/12 10:03:45;;;;;;;18.00;9.90;;;;;;;1.61;85.30;99465.38;1719817;82;25752;-57
2020/12/12 10:06:12;;;;;;;15.28;10.03;;;;;;;1.63;85.28;99460.03;1715910;82;26358;-55
2020/12/12 10:08:39;;;;;;;15.78;10.23;;;;;;;1.67;85.43;99458.44;1703229;83;25783;-57
2020/12/12 10:11:06;;;;;;;17.73;10.43;;;;;;;1.71;85.24;99458.70;1691213;83;25952;-57
2020/12/12 10:13:33;;;;;;;17.67;11.28;;;;;;;1.73;85.12;99458.42;1704414;82;26157;-57
2020/12/12 10:16:00;;;;;;;18.55;10.85;;;;;;;1.73;85.03;99451.22;1750351;81;25961;-60
2020/12/12 10:18:27;;;;;;;17.25;10.10;;;;;;;1.75;84.95;99455.73;1751844;81;25915;-58
2020/12/12 10:20:53;;;;;;;16.80;11.33;;;;;;;1.74;84.74;99460.83;1755265;81;25701;-58
2020/12/12 10:23:20;;;;;;;20.32;12.05;;;;;;;1.70;84.46;99454.42;1755091;81;25667;-55
2020/12/12 10:25:47;;;;;;;18.62;11.80;;;;;;;1.70;84.65;99456.30;1755418;81;26262;-57
2020/12/12 10:28:14;;;;;;;14.93;9.33;;;;;;;1.71;84.71;99458.70;1755388;81;25707;-58
2020/12/12 10:30:41;;;;;;;15.78;9.75;;;;;;;1.68;84.51;99460.56;1748489;81;26287;-58
2020/12/12 10:33:08;;;;;;;16.02;10.82;;;;;;;1.67;84.68;99448.31;1743010;81;25685;-56
2020/12/12 10:35:35;;;;;;;16.77;10.20;;;;;;;1.67;84.64;99445.11;1733984;82;25748;-58
2020/12/12 10:38:02;;;;;;;16.25;10.13;;;;;;;1.70;84.75;99454.96;1725878;82;25904;-56
2020/12/12 10:40:40;;;;;;;17.87;10.32;;;;;;;1.70;84.71;99450.96;1761998;81;25703;-57
2020/12/12 10:43:09;;;;;;;17.77;10.65;;;;;;;1.69;84.75;99452.84;1762685;81;26663;-55
2020/12/12 10:45:36;;;;;;;18.85;10.58;;;;;;;1.71;84.76;99453.36;1764244;81;25663;-56
2020/12/12 10:48:04;;;;;;;15.72;10.80;;;;;;;1.72;84.78;99446.97;1764238;81;25639;-58
2020/12/12 10:50:31;;;;;;;15.03;10.38;;;;;;;1.74;84.66;99445.34;1764353;81;26314;-55
2020/12/12 10:52:58;;;;;;;15.90;10.35;;;;;;;1.76;84.70;99449.89;1764071;81;25661;-54
2020/12/12 10:55:25;;;;;;;16.10;9.98;;;;;;;1.78;84.73;99451.75;1764450;81;25768;-58
2020/12/12 10:57:51;;;;;;;16.50;10.90;;;;;;;1.79;84.74;99452.02;1764288;81;25561;-56
2020/12/12 11:00:24;;;;;;;17.27;10.00;;;;;;;1.80;84.61;99456.27;1764452;81;25750;-56
2020/12/12 11:02:46;;;;;;;17.35;10.70;;;;;;;1.81;84.60;99460.55;1763384;81;25730;-58
2020/12/12 11:05:13;;;;;;;20.55;10.65;;;;;;;1.82;84.57;99454.13;1764366;81;25575;-58
2020/12/12 11:07:40;;;;;;;14.23;10.15;;;;;;;1.81;84.41;99456.00;1764346;81;26187;-55
2020/12/12 11:10:06;;;;;;;15.60;10.30;;;;;;;1.80;84.41;99438.39;1764210;81;25631;-53
2020/12/12 11:12:33;;;;;;;15.35;10.30;;;;;;;1.80;84.17;99445.60;1764528;81;25712;-47
2020/12/12 11:15:00;;;;;;;14.98;9.53;;;;;;;1.81;84.48;99448.55;1763515;81;25597;-56
2020/12/12 11:17:27;;;;;;;16.27;9.63;;;;;;;1.82;84.47;99453.61;1764539;81;26412;-57
2020/12/12 11:19:54;;;;;;;17.25;10.65;;;;;;;1.81;84.20;99445.33;1764443;81;25937;-55
2020/12/12 11:22:20;;;;;;;19.00;10.35;;;;;;;1.80;84.27;99442.39;1764296;81;25695;-57
2020/12/12 11:24:47;;;;;;;17.48;10.82;;;;;;;1.79;84.09;99442.69;1764465;81;25962;-57
2020/12/12 11:27:14;;;;;;;16.05;10.32;;;;;;;1.79;84.33;99438.14;1764483;81;25699;-57
2020/12/12 11:29:41;;;;;;;17.32;11.28;;;;;;;1.81;84.33;99439.21;1764560;81;25675;-56
2020/12/12 11:32:09;;;;;;;16.05;10.55;;;;;;;1.82;84.34;99445.61;1762862;81;26183;-57
2020/12/12 11:39:55;;;;;;;16.25;10.28;;;;;;;1.81;84.21;99456.00;1822576;78;25633;-54
2020/12/12 11:44:55;;;;;;;16.85;11.43;;;;;;;1.76;84.08;99446.69;1822295;78;25761;-57
2020/12/12 11:47:11;;;;;;;16.42;11.08;;;;;;;1.75;84.15;99443.74;1819762;78;25755;-57
2020/12/12 11:49:38;;;;;;;17.20;11.20;;;;;;;1.73;84.15;99439.22;1822253;78;25629;-57